sensor_id;sensor_type;location;lat;lon;timestamp;P1;durP1;ratioP1;P2;durP2;ratioP2
54923;SDS011;40825;52.270;20.984;2023-09-12T00:00:44;23.50;;;13.30;;
54923;SDS011;40825;52.270;20.984;2023-09-12T00:03:29;21.50;;;13.60;;
54923;SDS011;40825;52.270;20.984;2023-09-12T00:05:55;22.80;;;13.10;;
54923;SDS011;40825;52.270;20.984;2023-09-12T00:08:22;19.30;;;13.40;;
54923;SDS011;40825;52.270;20.984;2023-09-12T00:13:44;24.40;;;14.50;;
54923;SDS011;40825;52.270;20.984;2023-09-12T00:16:10;23.20;;;16.50;;
54923;SDS011;40825;52.270;20.984;2023-09-12T00:18:38;21.30;;;14.70;;
54923;SDS011;40825;52.270;20.984;2023-09-12T00:21:04;22.20;;;13.70;;
54923;SDS011;40825;52.270;20.984;2023-09-12T00:23:30;20.60;;;13.10;;
54923;SDS011;40825;52.270;20.984;2023-09-12T00:25:56;22.60;;;14.50;;
54923;SDS011;40825;52.270;20.984;2023-09-12T00:28:22;19.50;;;12.40;;
54923;SDS011;40825;52.270;20.984;2023-09-12T00:30:47;19.20;;;12.60;;
54923;SDS011;40825;52.270;20.984;2023-09-12T00:33:13;18.80;;;13.30;;
54923;SDS011;40825;52.270;20.984;2023-09-12T00:35:39;17.90;;;13.10;;
54923;SDS011;40825;52.270;20.984;2023-09-12T00:38:04;20.50;;;13.20;;
54923;SDS011;40825;52.270;20.984;2023-09-12T00:40:31;19.90;;;12.60;;
54923;SDS011;40825;52.270;20.984;2023-09-12T00:42:56;24.40;;;13.50;;
54923;SDS011;40825;52.270;20.984;2023-09-12T00:45:22;18.10;;;13.30;;
54923;SDS011;40825;52.270;20.984;2023-09-12T00:47:47;19.10;;;12.80;;
54923;SDS011;40825;52.270;20.984;2023-09-12T00:50:14;18.90;;;12.30;;
54923;SDS011;40825;52.270;20.984;2023-09-12T00:52:41;19.30;;;13.00;;
54923;SDS011;40825;52.270;20.984;2023-09-12T00:55:08;22.60;;;13.20;;
54923;SDS011;40825;52.270;20.984;2023-09-12T00:57:34;21.00;;;12.20;;
54923;SDS011;40825;52.270;20.984;2023-09-12T01:00:04;21.80;;;13.50;;
54923;SDS011;40825;52.270;20.984;2023-09-12T01:02:42;20.30;;;13.00;;
54923;SDS011;40825;52.270;20.984;2023-09-12T01:05:10;19.00;;;13.30;;
54923;SDS011;40825;52.270;20.984;2023-09-12T01:07:37;20.20;;;13.10;;
54923;SDS011;40825;52.270;20.984;2023-09-12T01:10:03;23.00;;;12.80;;
54923;SDS011;40825;52.270;20.984;2023-09-12T01:12:32;21.40;;;12.70;;
54923;SDS011;40825;52.270;20.984;2023-09-12T01:14:58;19.30;;;14.10;;
54923;SDS011;40825;52.270;20.984;2023-09-12T01:17:24;21.70;;;13.50;;
54923;SDS011;40825;52.270;20.984;2023-09-12T01:19:50;20.10;;;15.50;;
54923;SDS011;40825;52.270;20.984;2023-09-12T01:25:40;21.80;;;13.60;;
54923;SDS011;40825;52.270;20.984;2023-09-12T01:27:54;21.20;;;13.80;;
54923;SDS011;40825;52.270;20.984;2023-09-12T01:30:22;21.60;;;14.30;;
54923;SDS011;40825;52.270;20.984;2023-09-12T01:32:50;23.00;;;14.30;;
54923;SDS011;40825;52.270;20.984;2023-09-12T01:35:16;19.80;;;13.50;;
54923;SDS011;40825;52.270;20.984;2023-09-12T01:37:41;19.90;;;13.80;;
54923;SDS011;40825;52.270;20.984;2023-09-12T01:40:07;21.30;;;13.10;;
54923;SDS011;40825;52.270;20.984;2023-09-12T01:42:36;20.50;;;13.50;;
54923;SDS011;40825;52.270;20.984;2023-09-12T01:45:07;24.00;;;15.70;;
54923;SDS011;40825;52.270;20.984;2023-09-12T01:47:35;21.30;;;13.70;;
54923;SDS011;40825;52.270;20.984;2023-09-12T01:50:03;22.40;;;14.60;;
54923;SDS011;40825;52.270;20.984;2023-09-12T01:52:33;21.30;;;14.10;;
54923;SDS011;40825;52.270;20.984;2023-09-12T01:55:00;22.60;;;14.50;;
54923;SDS011;40825;52.270;20.984;2023-09-12T01:57:27;24.20;;;14.70;;
54923;SDS011;40825;52.270;20.984;2023-09-12T01:59:54;19.60;;;14.40;;
54923;SDS011;40825;52.270;20.984;2023-09-12T02:02:19;23.40;;;16.00;;
54923;SDS011;40825;52.270;20.984;2023-09-12T02:04:47;24.30;;;15.20;;
54923;SDS011;40825;52.270;20.984;2023-09-12T02:07:38;19.40;;;14.10;;
54923;SDS011;40825;52.270;20.984;2023-09-12T02:10:04;24.00;;;14.60;;
54923;SDS011;40825;52.270;20.984;2023-09-12T02:12:31;21.00;;;14.80;;
54923;SDS011;40825;52.270;20.984;2023-09-12T02:14:57;21.70;;;14.80;;
54923;SDS011;40825;52.270;20.984;2023-09-12T02:17:22;22.60;;;14.50;;
54923;SDS011;40825;52.270;20.984;2023-09-12T02:19:48;20.40;;;14.90;;
54923;SDS011;40825;52.270;20.984;2023-09-12T02:22:14;24.10;;;14.70;;
54923;SDS011;40825;52.270;20.984;2023-09-12T02:24:39;24.30;;;14.10;;
54923;SDS011;40825;52.270;20.984;2023-09-12T02:27:05;23.70;;;15.30;;
54923;SDS011;40825;52.270;20.984;2023-09-12T02:29:30;23.10;;;14.60;;
54923;SDS011;40825;52.270;20.984;2023-09-12T02:31:58;27.30;;;14.70;;
54923;SDS011;40825;52.270;20.984;2023-09-12T02:34:23;23.10;;;14.60;;
54923;SDS011;40825;52.270;20.984;2023-09-12T02:36:49;22.20;;;14.40;;
54923;SDS011;40825;52.270;20.984;2023-09-12T02:39:15;21.80;;;14.60;;
54923;SDS011;40825;52.270;20.984;2023-09-12T02:41:40;20.50;;;14.40;;
54923;SDS011;40825;52.270;20.984;2023-09-12T02:44:06;22.40;;;14.40;;
54923;SDS011;40825;52.270;20.984;2023-09-12T02:46:32;21.60;;;14.90;;
54923;SDS011;40825;52.270;20.984;2023-09-12T02:48:58;21.80;;;14.10;;
54923;SDS011;40825;52.270;20.984;2023-09-12T02:51:25;22.00;;;15.80;;
54923;SDS011;40825;52.270;20.984;2023-09-12T02:53:50;20.90;;;14.10;;
54923;SDS011;40825;52.270;20.984;2023-09-12T02:56:16;21.30;;;13.40;;
54923;SDS011;40825;52.270;20.984;2023-09-12T02:58:41;25.70;;;14.50;;
54923;SDS011;40825;52.270;20.984;2023-09-12T03:01:07;23.00;;;14.80;;
54923;SDS011;40825;52.270;20.984;2023-09-12T03:03:32;26.80;;;16.70;;
54923;SDS011;40825;52.270;20.984;2023-09-12T03:05:58;20.60;;;13.80;;
54923;SDS011;40825;52.270;20.984;2023-09-12T03:08:25;22.50;;;13.90;;
54923;SDS011;40825;52.270;20.984;2023-09-12T03:10:57;23.00;;;14.60;;
54923;SDS011;40825;52.270;20.984;2023-09-12T03:13:26;25.20;;;15.20;;
54923;SDS011;40825;52.270;20.984;2023-09-12T03:15:52;22.80;;;14.90;;
54923;SDS011;40825;52.270;20.984;2023-09-12T03:18:18;23.50;;;14.90;;
54923;SDS011;40825;52.270;20.984;2023-09-12T03:20:43;25.00;;;14.60;;
54923;SDS011;40825;52.270;20.984;2023-09-12T03:23:09;22.90;;;15.80;;
54923;SDS011;40825;52.270;20.984;2023-09-12T03:25:35;22.50;;;14.60;;
54923;SDS011;40825;52.270;20.984;2023-09-12T03:28:03;23.00;;;15.10;;
54923;SDS011;40825;52.270;20.984;2023-09-12T03:30:29;24.00;;;14.40;;
54923;SDS011;40825;52.270;20.984;2023-09-12T03:32:55;24.40;;;15.10;;
54923;SDS011;40825;52.270;20.984;2023-09-12T03:35:20;26.10;;;15.50;;
54923;SDS011;40825;52.270;20.984;2023-09-12T03:37:46;23.00;;;14.90;;
54923;SDS011;40825;52.270;20.984;2023-09-12T03:40:11;22.20;;;15.70;;
54923;SDS011;40825;52.270;20.984;2023-09-12T03:42:37;24.40;;;15.50;;
54923;SDS011;40825;52.270;20.984;2023-09-12T03:45:02;25.10;;;16.50;;
54923;SDS011;40825;52.270;20.984;2023-09-12T03:47:28;24.70;;;15.60;;
54923;SDS011;40825;52.270;20.984;2023-09-12T03:49:54;22.00;;;15.30;;
54923;SDS011;40825;52.270;20.984;2023-09-12T03:52:19;26.80;;;16.10;;
54923;SDS011;40825;52.270;20.984;2023-09-12T03:54:45;26.30;;;16.10;;
54923;SDS011;40825;52.270;20.984;2023-09-12T03:57:10;23.00;;;15.00;;
54923;SDS011;40825;52.270;20.984;2023-09-12T03:59:35;24.60;;;17.20;;
54923;SDS011;40825;52.270;20.984;2023-09-12T04:02:01;25.20;;;15.80;;
54923;SDS011;40825;52.270;20.984;2023-09-12T04:04:28;26.60;;;15.90;;
54923;SDS011;40825;52.270;20.984;2023-09-12T04:06:54;25.40;;;17.00;;
54923;SDS011;40825;52.270;20.984;2023-09-12T04:09:20;26.20;;;17.10;;
54923;SDS011;40825;52.270;20.984;2023-09-12T04:11:46;28.30;;;18.60;;
54923;SDS011;40825;52.270;20.984;2023-09-12T04:14:12;26.00;;;17.80;;
54923;SDS011;40825;52.270;20.984;2023-09-12T04:16:38;27.90;;;17.80;;
54923;SDS011;40825;52.270;20.984;2023-09-12T04:19:04;29.90;;;18.30;;
54923;SDS011;40825;52.270;20.984;2023-09-12T04:21:29;30.80;;;17.70;;
54923;SDS011;40825;52.270;20.984;2023-09-12T04:23:55;28.20;;;18.20;;
54923;SDS011;40825;52.270;20.984;2023-09-12T04:26:20;27.90;;;18.90;;
54923;SDS011;40825;52.270;20.984;2023-09-12T04:28:46;26.90;;;17.30;;
54923;SDS011;40825;52.270;20.984;2023-09-12T04:31:12;27.30;;;18.60;;
54923;SDS011;40825;52.270;20.984;2023-09-12T04:33:38;28.80;;;19.90;;
54923;SDS011;40825;52.270;20.984;2023-09-12T04:36:03;29.70;;;19.30;;
54923;SDS011;40825;52.270;20.984;2023-09-12T04:38:29;27.90;;;19.20;;
54923;SDS011;40825;52.270;20.984;2023-09-12T04:40:59;28.50;;;20.80;;
54923;SDS011;40825;52.270;20.984;2023-09-12T04:43:30;31.20;;;22.10;;
54923;SDS011;40825;52.270;20.984;2023-09-12T04:45:56;28.50;;;19.30;;
54923;SDS011;40825;52.270;20.984;2023-09-12T04:48:21;33.00;;;20.10;;
54923;SDS011;40825;52.270;20.984;2023-09-12T04:50:47;32.60;;;20.90;;
54923;SDS011;40825;52.270;20.984;2023-09-12T04:53:13;30.50;;;21.90;;
54923;SDS011;40825;52.270;20.984;2023-09-12T04:55:39;28.20;;;20.10;;
54923;SDS011;40825;52.270;20.984;2023-09-12T04:58:04;33.00;;;21.20;;
54923;SDS011;40825;52.270;20.984;2023-09-12T05:00:31;27.80;;;19.90;;
54923;SDS011;40825;52.270;20.984;2023-09-12T05:02:56;29.70;;;20.40;;
54923;SDS011;40825;52.270;20.984;2023-09-12T05:05:22;28.70;;;19.60;;
54923;SDS011;40825;52.270;20.984;2023-09-12T05:07:47;32.60;;;21.00;;
54923;SDS011;40825;52.270;20.984;2023-09-12T05:10:13;29.50;;;19.80;;
54923;SDS011;40825;52.270;20.984;2023-09-12T05:12:39;28.20;;;19.90;;
54923;SDS011;40825;52.270;20.984;2023-09-12T05:15:04;28.60;;;19.90;;
54923;SDS011;40825;52.270;20.984;2023-09-12T05:17:30;29.90;;;20.10;;
54923;SDS011;40825;52.270;20.984;2023-09-12T05:19:55;29.00;;;19.40;;
54923;SDS011;40825;52.270;20.984;2023-09-12T05:22:21;28.30;;;19.20;;
54923;SDS011;40825;52.270;20.984;2023-09-12T05:24:46;29.80;;;20.30;;
54923;SDS011;40825;52.270;20.984;2023-09-12T05:27:12;30.70;;;20.30;;
54923;SDS011;40825;52.270;20.984;2023-09-12T05:29:37;28.50;;;20.30;;
54923;SDS011;40825;52.270;20.984;2023-09-12T05:32:03;30.30;;;20.10;;
54923;SDS011;40825;52.270;20.984;2023-09-12T05:34:29;28.90;;;20.30;;
54923;SDS011;40825;52.270;20.984;2023-09-12T05:36:55;34.00;;;21.40;;
54923;SDS011;40825;52.270;20.984;2023-09-12T05:39:21;33.50;;;21.20;;
54923;SDS011;40825;52.270;20.984;2023-09-12T05:41:48;30.60;;;21.20;;
54923;SDS011;40825;52.270;20.984;2023-09-12T05:44:14;30.00;;;23.70;;
54923;SDS011;40825;52.270;20.984;2023-09-12T05:46:46;27.10;;;20.80;;
54923;SDS011;40825;52.270;20.984;2023-09-12T05:49:16;33.80;;;21.10;;
54923;SDS011;40825;52.270;20.984;2023-09-12T05:51:41;28.30;;;21.70;;
54923;SDS011;40825;52.270;20.984;2023-09-12T05:54:07;31.70;;;21.10;;
54923;SDS011;40825;52.270;20.984;2023-09-12T05:56:36;34.70;;;20.70;;
54923;SDS011;40825;52.270;20.984;2023-09-12T05:59:01;34.90;;;23.30;;
54923;SDS011;40825;52.270;20.984;2023-09-12T06:01:27;29.50;;;20.00;;
54923;SDS011;40825;52.270;20.984;2023-09-12T06:03:53;31.10;;;20.70;;
54923;SDS011;40825;52.270;20.984;2023-09-12T06:06:19;32.60;;;20.60;;
54923;SDS011;40825;52.270;20.984;2023-09-12T06:08:44;32.40;;;21.40;;
54923;SDS011;40825;52.270;20.984;2023-09-12T06:11:10;29.50;;;19.90;;
54923;SDS011;40825;52.270;20.984;2023-09-12T06:13:35;31.00;;;23.00;;
54923;SDS011;40825;52.270;20.984;2023-09-12T06:16:03;30.90;;;19.60;;
54923;SDS011;40825;52.270;20.984;2023-09-12T06:18:29;27.90;;;19.40;;
54923;SDS011;40825;52.270;20.984;2023-09-12T06:20:57;27.30;;;20.30;;
54923;SDS011;40825;52.270;20.984;2023-09-12T06:23:23;27.90;;;19.20;;
54923;SDS011;40825;52.270;20.984;2023-09-12T06:25:49;25.50;;;19.00;;
54923;SDS011;40825;52.270;20.984;2023-09-12T06:28:24;27.80;;;18.40;;
54923;SDS011;40825;52.270;20.984;2023-09-12T06:30:50;24.60;;;18.20;;
54923;SDS011;40825;52.270;20.984;2023-09-12T06:33:16;25.20;;;18.40;;
54923;SDS011;40825;52.270;20.984;2023-09-12T06:35:41;25.90;;;17.40;;
54923;SDS011;40825;52.270;20.984;2023-09-12T06:38:07;24.30;;;17.70;;
54923;SDS011;40825;52.270;20.984;2023-09-12T06:40:32;26.00;;;18.80;;
54923;SDS011;40825;52.270;20.984;2023-09-12T06:42:58;25.10;;;17.70;;
54923;SDS011;40825;52.270;20.984;2023-09-12T06:45:23;25.60;;;17.90;;
54923;SDS011;40825;52.270;20.984;2023-09-12T06:47:48;22.10;;;17.00;;
54923;SDS011;40825;52.270;20.984;2023-09-12T06:50:14;23.20;;;16.10;;
54923;SDS011;40825;52.270;20.984;2023-09-12T06:52:39;25.40;;;16.40;;
54923;SDS011;40825;52.270;20.984;2023-09-12T06:55:05;23.70;;;16.70;;
54923;SDS011;40825;52.270;20.984;2023-09-12T06:57:30;22.80;;;15.30;;
54923;SDS011;40825;52.270;20.984;2023-09-12T06:59:56;21.10;;;14.40;;
54923;SDS011;40825;52.270;20.984;2023-09-12T07:02:21;24.00;;;14.90;;
54923;SDS011;40825;52.270;20.984;2023-09-12T07:04:47;22.50;;;16.00;;
54923;SDS011;40825;52.270;20.984;2023-09-12T07:07:12;27.10;;;17.40;;
54923;SDS011;40825;52.270;20.984;2023-09-12T07:09:38;23.40;;;14.70;;
54923;SDS011;40825;52.270;20.984;2023-09-12T07:12:03;21.60;;;14.60;;
54923;SDS011;40825;52.270;20.984;2023-09-12T07:14:30;23.50;;;17.20;;
54923;SDS011;40825;52.270;20.984;2023-09-12T07:16:56;22.30;;;14.70;;
54923;SDS011;40825;52.270;20.984;2023-09-12T07:19:22;21.30;;;13.90;;
54923;SDS011;40825;52.270;20.984;2023-09-12T07:21:47;23.20;;;16.30;;
54923;SDS011;40825;52.270;20.984;2023-09-12T07:24:13;20.20;;;14.90;;
54923;SDS011;40825;52.270;20.984;2023-09-12T07:26:38;22.60;;;14.10;;
54923;SDS011;40825;52.270;20.984;2023-09-12T07:29:04;20.70;;;13.30;;
54923;SDS011;40825;52.270;20.984;2023-09-12T07:31:31;21.10;;;14.70;;
54923;SDS011;40825;52.270;20.984;2023-09-12T07:33:56;21.10;;;14.80;;
54923;SDS011;40825;52.270;20.984;2023-09-12T07:36:22;21.20;;;14.40;;
54923;SDS011;40825;52.270;20.984;2023-09-12T07:38:47;24.70;;;14.30;;
54923;SDS011;40825;52.270;20.984;2023-09-12T07:41:13;19.50;;;14.90;;
54923;SDS011;40825;52.270;20.984;2023-09-12T07:43:39;21.70;;;14.60;;
54923;SDS011;40825;52.270;20.984;2023-09-12T07:46:05;22.10;;;14.60;;
54923;SDS011;40825;52.270;20.984;2023-09-12T07:48:31;21.50;;;15.70;;
54923;SDS011;40825;52.270;20.984;2023-09-12T07:50:57;22.60;;;14.30;;
54923;SDS011;40825;52.270;20.984;2023-09-12T07:53:22;22.30;;;14.90;;
54923;SDS011;40825;52.270;20.984;2023-09-12T07:55:48;21.00;;;14.20;;
54923;SDS011;40825;52.270;20.984;2023-09-12T07:58:14;23.60;;;14.20;;
54923;SDS011;40825;52.270;20.984;2023-09-12T08:00:43;24.20;;;14.00;;
54923;SDS011;40825;52.270;20.984;2023-09-12T08:03:09;23.50;;;15.40;;
54923;SDS011;40825;52.270;20.984;2023-09-12T08:05:35;22.20;;;15.00;;
54923;SDS011;40825;52.270;20.984;2023-09-12T08:08:00;21.10;;;14.80;;
54923;SDS011;40825;52.270;20.984;2023-09-12T08:10:26;23.50;;;14.70;;
54923;SDS011;40825;52.270;20.984;2023-09-12T08:12:52;20.00;;;14.10;;
54923;SDS011;40825;52.270;20.984;2023-09-12T08:15:19;22.20;;;13.50;;
54923;SDS011;40825;52.270;20.984;2023-09-12T08:17:44;22.80;;;13.40;;
54923;SDS011;40825;52.270;20.984;2023-09-12T08:20:10;20.60;;;13.40;;
54923;SDS011;40825;52.270;20.984;2023-09-12T08:22:36;27.40;;;14.20;;
54923;SDS011;40825;52.270;20.984;2023-09-12T08:25:02;21.20;;;14.00;;
54923;SDS011;40825;52.270;20.984;2023-09-12T08:27:28;20.80;;;12.60;;
54923;SDS011;40825;52.270;20.984;2023-09-12T08:29:53;20.10;;;12.60;;
54923;SDS011;40825;52.270;20.984;2023-09-12T08:32:19;20.60;;;12.70;;
54923;SDS011;40825;52.270;20.984;2023-09-12T08:34:45;21.00;;;13.10;;
54923;SDS011;40825;52.270;20.984;2023-09-12T08:37:10;21.60;;;14.20;;
54923;SDS011;40825;52.270;20.984;2023-09-12T08:39:40;21.70;;;13.90;;
54923;SDS011;40825;52.270;20.984;2023-09-12T08:42:10;21.60;;;13.30;;
54923;SDS011;40825;52.270;20.984;2023-09-12T08:44:38;20.70;;;13.20;;
54923;SDS011;40825;52.270;20.984;2023-09-12T08:47:04;18.60;;;13.20;;
54923;SDS011;40825;52.270;20.984;2023-09-12T08:49:33;18.00;;;13.90;;
54923;SDS011;40825;52.270;20.984;2023-09-12T08:52:00;19.30;;;12.10;;
54923;SDS011;40825;52.270;20.984;2023-09-12T08:54:26;19.70;;;13.20;;
54923;SDS011;40825;52.270;20.984;2023-09-12T08:56:51;18.90;;;12.60;;
54923;SDS011;40825;52.270;20.984;2023-09-12T08:59:18;26.90;;;12.70;;
54923;SDS011;40825;52.270;20.984;2023-09-12T09:01:46;17.20;;;11.20;;
54923;SDS011;40825;52.270;20.984;2023-09-12T09:04:12;18.80;;;11.50;;
54923;SDS011;40825;52.270;20.984;2023-09-12T09:06:38;15.20;;;10.40;;
54923;SDS011;40825;52.270;20.984;2023-09-12T09:09:07;14.20;;;9.00;;
54923;SDS011;40825;52.270;20.984;2023-09-12T09:11:34;15.70;;;9.00;;
54923;SDS011;40825;52.270;20.984;2023-09-12T09:14:00;13.50;;;8.80;;
54923;SDS011;40825;52.270;20.984;2023-09-12T09:16:29;13.00;;;8.50;;
54923;SDS011;40825;52.270;20.984;2023-09-12T09:18:57;15.90;;;7.90;;
54923;SDS011;40825;52.270;20.984;2023-09-12T09:21:31;14.70;;;8.60;;
54923;SDS011;40825;52.270;20.984;2023-09-12T09:23:58;14.90;;;8.80;;
54923;SDS011;40825;52.270;20.984;2023-09-12T09:26:40;11.40;;;8.00;;
54923;SDS011;40825;52.270;20.984;2023-09-12T09:29:10;14.00;;;10.10;;
54923;SDS011;40825;52.270;20.984;2023-09-12T09:31:42;13.10;;;7.50;;
54923;SDS011;40825;52.270;20.984;2023-09-12T09:34:16;11.70;;;8.00;;
54923;SDS011;40825;52.270;20.984;2023-09-12T09:36:43;15.00;;;8.90;;
54923;SDS011;40825;52.270;20.984;2023-09-12T09:39:12;11.50;;;8.20;;
54923;SDS011;40825;52.270;20.984;2023-09-12T09:41:38;14.40;;;8.20;;
54923;SDS011;40825;52.270;20.984;2023-09-12T09:44:07;12.60;;;8.20;;
54923;SDS011;40825;52.270;20.984;2023-09-12T09:46:34;12.50;;;9.00;;
54923;SDS011;40825;52.270;20.984;2023-09-12T09:49:02;12.20;;;9.70;;
54923;SDS011;40825;52.270;20.984;2023-09-12T09:51:27;13.10;;;8.80;;
54923;SDS011;40825;52.270;20.984;2023-09-12T09:53:56;12.20;;;7.90;;
54923;SDS011;40825;52.270;20.984;2023-09-12T09:56:24;10.70;;;7.80;;
54923;SDS011;40825;52.270;20.984;2023-09-12T09:58:53;10.90;;;7.90;;
54923;SDS011;40825;52.270;20.984;2023-09-12T10:01:27;11.60;;;7.90;;
54923;SDS011;40825;52.270;20.984;2023-09-12T10:06:24;12.10;;;7.90;;
54923;SDS011;40825;52.270;20.984;2023-09-12T10:08:51;11.70;;;7.70;;
54923;SDS011;40825;52.270;20.984;2023-09-12T10:11:17;11.40;;;8.10;;
54923;SDS011;40825;52.270;20.984;2023-09-12T10:13:46;13.10;;;7.90;;
54923;SDS011;40825;52.270;20.984;2023-09-12T10:16:17;13.90;;;10.10;;
54923;SDS011;40825;52.270;20.984;2023-09-12T10:18:55;11.60;;;8.80;;
54923;SDS011;40825;52.270;20.984;2023-09-12T10:21:29;11.10;;;8.90;;
54923;SDS011;40825;52.270;20.984;2023-09-12T10:23:59;13.90;;;8.90;;
54923;SDS011;40825;52.270;20.984;2023-09-12T10:26:25;12.30;;;8.80;;
54923;SDS011;40825;52.270;20.984;2023-09-12T10:28:51;11.60;;;8.30;;
54923;SDS011;40825;52.270;20.984;2023-09-12T10:31:17;11.20;;;7.80;;
54923;SDS011;40825;52.270;20.984;2023-09-12T10:33:44;11.30;;;7.80;;
54923;SDS011;40825;52.270;20.984;2023-09-12T10:36:12;12.70;;;8.70;;
54923;SDS011;40825;52.270;20.984;2023-09-12T10:38:40;11.80;;;9.30;;
54923;SDS011;40825;52.270;20.984;2023-09-12T10:41:11;10.40;;;7.20;;
54923;SDS011;40825;52.270;20.984;2023-09-12T10:43:39;10.80;;;7.70;;
54923;SDS011;40825;52.270;20.984;2023-09-12T10:46:12;11.90;;;8.00;;
54923;SDS011;40825;52.270;20.984;2023-09-12T10:48:37;11.70;;;8.70;;
54923;SDS011;40825;52.270;20.984;2023-09-12T10:51:06;10.70;;;8.20;;
54923;SDS011;40825;52.270;20.984;2023-09-12T10:53:33;11.30;;;8.20;;
54923;SDS011;40825;52.270;20.984;2023-09-12T10:58:35;11.20;;;8.20;;
54923;SDS011;40825;52.270;20.984;2023-09-12T11:01:50;11.30;;;7.80;;
54923;SDS011;40825;52.270;20.984;2023-09-12T11:06:45;11.00;;;8.30;;
54923;SDS011;40825;52.270;20.984;2023-09-12T11:11:39;11.00;;;7.80;;
54923;SDS011;40825;52.270;20.984;2023-09-12T11:19:51;11.30;;;7.80;;
54923;SDS011;40825;52.270;20.984;2023-09-12T11:24:46;12.20;;;7.50;;
54923;SDS011;40825;52.270;20.984;2023-09-12T11:27:12;10.70;;;8.10;;
54923;SDS011;40825;52.270;20.984;2023-09-12T11:29:39;11.40;;;7.50;;
54923;SDS011;40825;52.270;20.984;2023-09-12T11:32:05;11.10;;;8.80;;
54923;SDS011;40825;52.270;20.984;2023-09-12T11:34:36;10.40;;;8.70;;
54923;SDS011;40825;52.270;20.984;2023-09-12T11:37:09;10.70;;;7.90;;
54923;SDS011;40825;52.270;20.984;2023-09-12T11:39:36;10.90;;;8.00;;
54923;SDS011;40825;52.270;20.984;2023-09-12T11:42:04;11.70;;;7.50;;
54923;SDS011;40825;52.270;20.984;2023-09-12T11:44:34;12.30;;;8.10;;
54923;SDS011;40825;52.270;20.984;2023-09-12T11:47:00;10.90;;;8.50;;
54923;SDS011;40825;52.270;20.984;2023-09-12T11:49:40;10.30;;;7.50;;
54923;SDS011;40825;52.270;20.984;2023-09-12T11:52:11;11.00;;;8.40;;
54923;SDS011;40825;52.270;20.984;2023-09-12T11:54:45;12.00;;;8.30;;
54923;SDS011;40825;52.270;20.984;2023-09-12T11:57:12;10.50;;;7.70;;
54923;SDS011;40825;52.270;20.984;2023-09-12T11:59:40;11.60;;;8.10;;
54923;SDS011;40825;52.270;20.984;2023-09-12T12:02:10;15.60;;;8.90;;
54923;SDS011;40825;52.270;20.984;2023-09-12T12:04:36;10.20;;;8.40;;
54923;SDS011;40825;52.270;20.984;2023-09-12T12:07:03;11.90;;;9.10;;
54923;SDS011;40825;52.270;20.984;2023-09-12T12:09:29;14.00;;;9.30;;
54923;SDS011;40825;52.270;20.984;2023-09-12T12:11:56;11.40;;;8.80;;
54923;SDS011;40825;52.270;20.984;2023-09-12T12:14:25;13.20;;;10.70;;
54923;SDS011;40825;52.270;20.984;2023-09-12T12:16:52;12.50;;;9.10;;
54923;SDS011;40825;52.270;20.984;2023-09-12T12:19:17;12.40;;;8.90;;
54923;SDS011;40825;52.270;20.984;2023-09-12T12:21:43;11.80;;;8.30;;
54923;SDS011;40825;52.270;20.984;2023-09-12T12:24:13;12.50;;;8.70;;
54923;SDS011;40825;52.270;20.984;2023-09-12T12:26:43;12.70;;;9.40;;
54923;SDS011;40825;52.270;20.984;2023-09-12T12:29:09;13.00;;;8.70;;
54923;SDS011;40825;52.270;20.984;2023-09-12T12:31:36;12.20;;;8.50;;
54923;SDS011;40825;52.270;20.984;2023-09-12T12:34:02;11.40;;;8.40;;
54923;SDS011;40825;52.270;20.984;2023-09-12T12:36:29;13.30;;;8.40;;
54923;SDS011;40825;52.270;20.984;2023-09-12T12:38:55;14.40;;;8.90;;
54923;SDS011;40825;52.270;20.984;2023-09-12T12:41:27;12.60;;;8.70;;
54923;SDS011;40825;52.270;20.984;2023-09-12T12:43:56;11.70;;;9.80;;
54923;SDS011;40825;52.270;20.984;2023-09-12T12:46:26;13.10;;;9.60;;
54923;SDS011;40825;52.270;20.984;2023-09-12T12:48:53;12.40;;;8.80;;
54923;SDS011;40825;52.270;20.984;2023-09-12T12:51:21;11.20;;;8.40;;
54923;SDS011;40825;52.270;20.984;2023-09-12T12:53:49;10.90;;;9.00;;
54923;SDS011;40825;52.270;20.984;2023-09-12T12:56:16;12.90;;;8.60;;
54923;SDS011;40825;52.270;20.984;2023-09-12T12:58:47;11.30;;;8.60;;
54923;SDS011;40825;52.270;20.984;2023-09-12T13:01:14;11.50;;;8.90;;
54923;SDS011;40825;52.270;20.984;2023-09-12T13:03:41;13.60;;;8.30;;
54923;SDS011;40825;52.270;20.984;2023-09-12T13:06:07;14.10;;;9.20;;
54923;SDS011;40825;52.270;20.984;2023-09-12T13:08:38;10.90;;;8.70;;
54923;SDS011;40825;52.270;20.984;2023-09-12T13:11:06;12.80;;;10.10;;
54923;SDS011;40825;52.270;20.984;2023-09-12T13:13:32;11.30;;;8.70;;
54923;SDS011;40825;52.270;20.984;2023-09-12T13:15:58;11.40;;;8.70;;
54923;SDS011;40825;52.270;20.984;2023-09-12T13:18:23;14.40;;;10.00;;
54923;SDS011;40825;52.270;20.984;2023-09-12T13:20:49;11.50;;;8.80;;
54923;SDS011;40825;52.270;20.984;2023-09-12T13:23:14;13.20;;;8.80;;
54923;SDS011;40825;52.270;20.984;2023-09-12T13:25:40;11.80;;;9.20;;
54923;SDS011;40825;52.270;20.984;2023-09-12T13:28:05;10.90;;;8.40;;
54923;SDS011;40825;52.270;20.984;2023-09-12T13:30:31;13.20;;;9.60;;
54923;SDS011;40825;52.270;20.984;2023-09-12T13:32:56;11.90;;;8.40;;
54923;SDS011;40825;52.270;20.984;2023-09-12T13:35:21;13.50;;;8.50;;
54923;SDS011;40825;52.270;20.984;2023-09-12T13:37:47;12.60;;;9.50;;
54923;SDS011;40825;52.270;20.984;2023-09-12T13:40:13;13.80;;;9.00;;
54923;SDS011;40825;52.270;20.984;2023-09-12T13:42:38;12.30;;;9.00;;
54923;SDS011;40825;52.270;20.984;2023-09-12T13:45:04;12.90;;;9.10;;
54923;SDS011;40825;52.270;20.984;2023-09-12T13:47:30;13.80;;;9.90;;
54923;SDS011;40825;52.270;20.984;2023-09-12T13:49:57;13.00;;;8.90;;
54923;SDS011;40825;52.270;20.984;2023-09-12T13:52:25;11.90;;;9.00;;
54923;SDS011;40825;52.270;20.984;2023-09-12T13:54:52;12.30;;;9.10;;
54923;SDS011;40825;52.270;20.984;2023-09-12T13:57:17;12.80;;;8.60;;
54923;SDS011;40825;52.270;20.984;2023-09-12T13:59:43;12.10;;;8.70;;
54923;SDS011;40825;52.270;20.984;2023-09-12T14:02:09;13.30;;;9.00;;
54923;SDS011;40825;52.270;20.984;2023-09-12T14:04:35;13.10;;;8.90;;
54923;SDS011;40825;52.270;20.984;2023-09-12T14:07:00;12.00;;;9.00;;
54923;SDS011;40825;52.270;20.984;2023-09-12T14:09:26;14.20;;;10.40;;
54923;SDS011;40825;52.270;20.984;2023-09-12T14:11:51;13.90;;;9.10;;
54923;SDS011;40825;52.270;20.984;2023-09-12T14:14:17;12.00;;;9.00;;
54923;SDS011;40825;52.270;20.984;2023-09-12T14:16:42;14.30;;;10.80;;
54923;SDS011;40825;52.270;20.984;2023-09-12T14:19:09;14.00;;;9.60;;
54923;SDS011;40825;52.270;20.984;2023-09-12T14:21:35;14.90;;;9.60;;
54923;SDS011;40825;52.270;20.984;2023-09-12T14:24:01;14.60;;;10.00;;
54923;SDS011;40825;52.270;20.984;2023-09-12T14:26:26;12.70;;;10.50;;
54923;SDS011;40825;52.270;20.984;2023-09-12T14:28:52;11.70;;;9.00;;
54923;SDS011;40825;52.270;20.984;2023-09-12T14:31:17;14.10;;;9.50;;
54923;SDS011;40825;52.270;20.984;2023-09-12T14:33:43;11.30;;;9.10;;
54923;SDS011;40825;52.270;20.984;2023-09-12T14:36:08;11.90;;;9.10;;